ADDS METAR Data INFO
IDs: Format: Raw Decoded Include TAF

Data at: 1520 UTC 21 Jul 2017

Region: TOP
KATL 211452Z 21003KT 10SM FEW030 SCT150 SCT250 30/23 A3008 RMK AO2 SLP173 T03000228 50004

KBOS 211454Z 28011KT 10SM FEW250 FEW300 28/14 A2985 RMK AO2 SLP109 T02830144 50001

KBWI 211454Z VRB03KT 10SM FEW044 SCT250 32/22 A2994 RMK AO2 SLP138 T03220217 58003

KCLE 211451Z 03004KT 10SM FEW029 SCT049 BKN250 29/23 A3001 RMK AO2 SLP154 T02890228 51004 $

KCLT 211452Z 36004KT 10SM FEW250 32/21 A3006 RMK AO2 SLP169 T03220211 50005

KCVG 211452Z 17007KT 9SM SCT100 BKN130 OVC200 23/23 A3003 RMK AO2 RAB1356E08B31E40 SLP157 P0000 60024 T02330233 50001

KDCA 211452Z 02003KT 10SM SCT050 SCT250 33/22 A2996 RMK AO2 SLP144 T03330217 58002

KDEN 211453Z 22011KT 10SM FEW090 FEW120 SCT220 26/11 A3014 RMK AO2 SLP115 T02560111 51001

KDFW 211453Z COR 19008KT 10SM FEW090 32/22 A3002 RMK AO2 SLP154 T03220217 50006 $

KDTW 211453Z VRB03KT 10SM FEW060 BKN230 28/21 A3000 RMK AO2 SLP153 T02830206 58001

KEWR 211451Z 30007KT 10SM FEW040 FEW095 SCT250 31/20 A2991 RMK AO2 SLP129 T03060200 50002

KFLL 211453Z 14011KT 10SM SCT025 BKN080 BKN150 BKN250 31/25 A3007 RMK SLP183 OCNL LTGICCG DSNT SW-NW CB DSNT SW-NW MOV NE T03110250 51007

KIAD 211452Z 00000KT 9SM SCT045 SCT130 BKN250 31/21 A2997 RMK AO2 SLP145 T03060211 58002

KIAH 211453Z 27004KT 10SM SCT020 BKN300 31/24 A3006 RMK AO2 SLP176 T03060244 50009

KJFK 211451Z 35010KT 10SM FEW045 FEW100 31/20 A2992 RMK AO2 SLP131 T03110200 50002

KLAS 211456Z 27003KT 10SM FEW250 31/09 A2995 RMK AO2 SLP109 T03110094 53017

KLAX 211453Z 15003KT 7SM FEW009 SCT014 BKN150 22/18 A2996 RMK AO2 SLP143 T02170178 53010

KLGA 211451Z 32010KT 10SM FEW037 FEW100 29/20 A2991 RMK AO2 SLP127 T02940200 50003

KMCO 211453Z 20006KT 10SM SCT017TCU SCT080 SCT250 29/25 A3008 RMK AO2 SLP184 TCU S T02940250 51008

KMDW 211453Z 17005KT 10SM FEW030 FEW090 SCT160 BKN240 28/21 A2999 RMK AO2 SLP143 T02830211 51009

KMEM 211454Z 23006KT 10SM FEW250 33/26 A3005 RMK AO2 SLP171 T03280256 50004

KMIA 211502Z COR 11008KT 10SM VCTS SCT026CB BKN040 BKN250 33/24 A3008 RMK AO2 LTG DSNT W AND NW OCNL LTGICCG VC NW-N TSB1456 TS VC NW-N MOV NE T03330244

KMSP 211453Z 14007KT 10SM FEW040 BKN100 OVC250 23/19 A2992 RMK AO2 SLP126 T02280189 50008

KORD 211451Z 16007KT 10SM FEW029 SCT200 OVC250 28/21 A2999 RMK AO2 SLP149 T02830211 51009

KPDX 211453Z 00000KT 10SM FEW045 FEW250 17/12 A3016 RMK AO2 SLP213 T01670122 53008

KPHL 211454Z 31006KT 10SM FEW042 FEW085 SCT300 31/21 A2994 RMK AO2 SLP138 T03110206 50002 $

KPHX 211451Z 12006KT 10SM SCT160 31/20 A2993 RMK AO2 SLP115 T03060200 51013

KPIT 211451Z 00000KT 10SM FEW018 SCT045 OVC250 28/22 A3000 RMK AO2 SLP156 T02780217 50000

KSAN 211451Z 19005KT 8SM FEW010 OVC015 21/17 A2998 RMK AO2 SLP151 T02110172 53012

KSEA 211453Z 25003KT 10SM FEW002 FEW120 BKN180 15/12 A3016 RMK AO2 SLP216 ACSL DSNT SE T01500122 53006

KSFO 211456Z 28013KT 10SM SCT012 14/11 A3002 RMK AO2 SLP165 T01440106 51009 $

KSLC 211454Z 11005KT 10SM FEW085 FEW120 SCT250 28/13 A3007 RMK AO2 SLP116 T02780128 51010

KSTL 211451Z 00000KT 10SM FEW250 34/22 A3000 RMK AO2 SLP141 T03440222 50000

KTPA 211453Z VRB06KT 10SM SCT022CB BKN240 30/25 A3008 RMK AO2 LTG DSNT NW SLP186 CB NW-N MOV E T03000250 50010